createdAt,value
2023-04-23T00:00:00.272Z,8.7
2023-04-23T00:10:00.271Z,8.6
2023-04-23T00:20:00.265Z,8.7
2023-04-23T00:30:00.254Z,8.6
2023-04-23T00:40:00.257Z,8.4
2023-04-23T00:50:00.274Z,8.6
2023-04-23T01:00:00.345Z,8.3
2023-04-23T01:10:00.307Z,8.1
2023-04-23T01:20:00.313Z,8.1
2023-04-23T01:30:00.268Z,7.8
2023-04-23T01:40:00.252Z,7.8
2023-04-23T01:50:00.261Z,7.5
2023-04-23T02:00:00.250Z,7.5
2023-04-23T02:10:00.255Z,7.3
2023-04-23T02:20:00.274Z,6.9
2023-04-23T02:30:00.288Z,6.7
2023-04-23T02:40:00.265Z,6.8
2023-04-23T02:50:00.289Z,7.0
2023-04-23T03:00:00.255Z,7.1
2023-04-23T03:10:00.271Z,7.3
2023-04-23T03:20:00.264Z,6.9
2023-04-23T03:30:00.274Z,6.4
2023-04-23T03:40:00.291Z,6.2
2023-04-23T03:50:00.260Z,6.5
2023-04-23T04:00:00.349Z,7.2
2023-04-23T04:10:00.269Z,7.0
2023-04-23T04:20:00.288Z,6.7
2023-04-23T04:30:00.242Z,7.3
2023-04-23T04:40:00.258Z,7.7
2023-04-23T04:50:00.292Z,7.8
2023-04-23T05:00:00.285Z,8.4
2023-04-23T05:10:00.263Z,9.3
2023-04-23T05:20:00.253Z,10.5
2023-04-23T05:30:00.273Z,11.1
2023-04-23T07:20:00.514Z,20.0
2023-04-23T07:30:00.483Z,20.9
2023-04-23T07:40:00.487Z,21.7
2023-04-23T07:50:00.500Z,23.0
2023-04-23T08:00:00.495Z,24.2
2023-04-23T08:10:00.471Z,25.0
2023-04-23T08:20:00.477Z,24.4
2023-04-23T08:30:00.482Z,24.8
2023-04-23T08:40:00.484Z,24.6
2023-04-23T08:50:00.497Z,25.0
2023-04-23T09:00:00.487Z,24.8
2023-04-23T09:10:00.485Z,25.5
2023-04-23T09:20:00.478Z,25.2
2023-04-23T09:30:00.493Z,25.8
2023-04-23T09:40:00.481Z,26.0
2023-04-23T09:50:00.493Z,27.2
2023-04-23T10:00:13.561Z,27.2
2023-04-23T10:10:00.522Z,24.9
2023-04-23T10:20:00.491Z,24.4
2023-04-23T10:30:00.496Z,24.5
2023-04-23T10:40:00.507Z,25.6
2023-04-23T10:50:00.502Z,25.1
2023-04-23T11:00:00.525Z,26.6
2023-04-23T11:10:00.525Z,26.0
2023-04-23T11:20:00.498Z,25.9
2023-04-23T11:30:00.567Z,25.5
2023-04-23T11:40:00.502Z,27.2
2023-04-23T11:50:00.549Z,26.8
2023-04-23T12:00:00.494Z,26.6
2023-04-23T12:10:00.487Z,26.0
2023-04-23T12:20:00.503Z,26.1
2023-04-23T12:30:00.525Z,26.9
2023-04-23T12:40:00.483Z,26.4
2023-04-23T12:50:00.501Z,26.3
2023-04-23T13:00:00.492Z,25.8
2023-04-23T13:10:00.493Z,26.3
2023-04-23T13:20:00.507Z,26.5
2023-04-23T13:30:00.585Z,26.1
2023-04-23T13:40:00.540Z,25.0
2023-04-23T13:50:00.498Z,23.2
2023-04-23T17:00:00.492Z,17.7
2023-04-23T17:10:00.483Z,17.3
2023-04-23T17:20:00.599Z,16.4
2023-04-23T17:30:00.550Z,14.8
2023-04-23T17:40:00.495Z,13.8
2023-04-23T17:50:00.500Z,13.5
2023-04-23T18:00:00.590Z,13.2
2023-04-23T18:10:00.524Z,12.9
2023-04-23T18:20:00.488Z,12.7
2023-04-23T18:30:00.510Z,12.6
2023-04-23T18:40:00.537Z,12.0
2023-04-23T18:50:00.528Z,12.2
2023-04-23T19:00:00.483Z,12.3
2023-04-23T19:10:00.522Z,12.1
2023-04-23T19:20:00.483Z,12.0
2023-04-23T19:30:00.478Z,12.2
2023-04-23T19:40:00.495Z,12.0
2023-04-23T19:50:00.505Z,12.0
2023-04-23T20:00:00.477Z,12.1
2023-04-23T20:10:00.488Z,12.0
2023-04-23T20:20:00.509Z,12.3
2023-04-23T20:30:00.486Z,12.5
2023-04-23T20:40:00.483Z,12.7
2023-04-23T20:50:00.508Z,12.5
2023-04-23T21:00:00.491Z,12.2
2023-04-23T21:10:00.556Z,12.5
2023-04-23T21:20:00.497Z,12.7
2023-04-23T21:30:00.486Z,13.0
2023-04-23T21:40:00.485Z,12.9
2023-04-23T21:50:00.488Z,12.7
2023-04-23T22:00:00.470Z,12.6
2023-04-23T22:10:00.571Z,12.5
2023-04-23T22:20:00.496Z,12.1
2023-04-23T22:30:00.520Z,12.2
2023-04-23T22:40:00.488Z,12.4
2023-04-23T22:50:00.495Z,12.6
2023-04-23T23:00:00.482Z,12.1
2023-04-23T23:10:00.497Z,12.0
2023-04-23T23:20:00.519Z,11.5
2023-04-23T23:30:00.480Z,11.8
2023-04-23T23:40:00.485Z,11.6
2023-04-23T23:50:00.501Z,12.1
